Time;durP1;ratioP1;P1;durP2;ratioP2;P2;SDS_P1;SDS_P2;PMS_P1;PMS_P2;Temp;Humidity;BMP_temperature;BMP_pressure;BME280_temperature;BME280_humidity;BME280_pressure;Samples;Min_cycle;Max_cycle;Signal;HPM_P1;HPM_P2
2021/07/20 00:01:10;;;;;;;7.65;4.15;;;;;;;;;;6246588;23;20058;-73
2021/07/20 00:03:36;;;;;;;7.10;4.05;;;;;;;;;;6246798;23;20000;-74
2021/07/20 00:06:03;;;;;;;7.32;4.07;;;;;;;;;;6247204;23;20394;-74
2021/07/20 00:08:30;;;;;;;10.25;4.20;;;;;;;;;;6246595;23;20089;-73
2021/07/20 00:11:00;;;;;;;10.45;3.72;;;;;;;;;;6247087;23;20079;-73
2021/07/20 00:13:27;;;;;;;7.80;3.85;;;;;;;;;;6247302;23;20004;-77
2021/07/20 00:15:55;;;;;;;11.65;3.95;;;;;;;;;;6246233;23;20023;-73
2021/07/20 00:18:23;;;;;;;9.70;4.30;;;;;;;;;;6244849;23;20036;-73
2021/07/20 00:20:50;;;;;;;8.73;4.20;;;;;;;;;;6246368;23;20004;-73
2021/07/20 00:23:18;;;;;;;7.93;3.75;;;;;;;;;;6246494;23;20330;-73
2021/07/20 00:25:47;;;;;;;11.13;4.13;;;;;;;;;;6244740;23;20326;-74
2021/07/20 00:28:13;;;;;;;12.90;4.18;;;;;;;;;;6246241;23;20422;-73
2021/07/20 00:30:39;;;;;;;11.77;4.03;;;;;;;;;;6244741;23;20070;-73
2021/07/20 00:33:06;;;;;;;13.02;4.38;;;;;;;;;;6246916;23;20349;-75
2021/07/20 00:35:32;;;;;;;6.18;3.08;;;;;;;;;;6245856;23;20055;-76
2021/07/20 00:37:58;;;;;;;8.70;4.10;;;;;;;;;;6246553;23;20007;-75
2021/07/20 00:40:27;;;;;;;9.45;4.10;;;;;;;;;;6219336;23;20453;-72
2021/07/20 00:42:54;;;;;;;6.97;3.83;;;;;;;;;;6219482;23;20127;-73
2021/07/20 00:45:20;;;;;;;10.82;3.90;;;;;;;;;;6246192;23;20004;-74
2021/07/20 00:47:48;;;;;;;8.13;4.20;;;;;;;;;;6246211;23;20001;-72
2021/07/20 00:50:15;;;;;;;8.55;4.40;;;;;;;;;;6246184;23;20000;-75
2021/07/20 00:52:41;;;;;;;9.35;4.43;;;;;;;;;;6219382;23;20015;-72
2021/07/20 00:55:08;;;;;;;8.55;3.90;;;;;;;;;;6246741;23;20082;-73
2021/07/20 00:57:34;;;;;;;8.52;4.22;;;;;;;;;;6248036;23;20000;-73
2021/07/20 01:00:01;;;;;;;9.70;4.40;;;;;;;;;;6221399;23;20462;-75
2021/07/20 01:02:28;;;;;;;8.23;4.10;;;;;;;;;;6221377;23;20445;-73
2021/07/20 01:04:54;;;;;;;10.60;4.22;;;;;;;;;;6248534;23;20050;-73
2021/07/20 01:07:21;;;;;;;8.50;3.92;;;;;;;;;;6248494;23;20004;-73
2021/07/20 01:09:47;;;;;;;7.35;4.03;;;;;;;;;;6222243;23;20014;-74
2021/07/20 01:12:14;;;;;;;11.30;4.40;;;;;;;;;;6249481;23;20035;-72
2021/07/20 01:14:44;;;;;;;10.65;4.65;;;;;;;;;;6221149;23;20008;-74
2021/07/20 01:17:13;;;;;;;11.55;4.70;;;;;;;;;;6248808;23;20314;-72
2021/07/20 01:19:50;;;;;;;9.88;4.43;;;;;;;;;;6221228;23;20004;-73
2021/07/20 01:22:17;;;;;;;10.38;4.43;;;;;;;;;;6221259;23;20004;-73
2021/07/20 01:24:44;;;;;;;11.13;4.85;;;;;;;;;;6247981;23;20011;-75
2021/07/20 01:27:11;;;;;;;10.40;4.72;;;;;;;;;;6248334;23;20008;-73
2021/07/20 01:29:38;;;;;;;13.85;4.82;;;;;;;;;;6221064;23;20004;-72
2021/07/20 01:32:05;;;;;;;12.52;5.18;;;;;;;;;;6221021;23;20464;-73
2021/07/20 01:34:31;;;;;;;10.10;4.90;;;;;;;;;;6247432;23;20000;-73
2021/07/20 01:36:58;;;;;;;12.05;5.15;;;;;;;;;;6248658;23;20015;-73
2021/07/20 01:39:25;;;;;;;9.75;5.53;;;;;;;;;;6247824;23;19996;-73
2021/07/20 01:41:52;;;;;;;10.30;5.00;;;;;;;;;;6248173;23;20011;-73
2021/07/20 01:44:19;;;;;;;11.00;5.05;;;;;;;;;;6247811;23;20322;-73
2021/07/20 01:46:46;;;;;;;15.77;5.45;;;;;;;;;;6247811;23;20011;-72
2021/07/20 01:49:16;;;;;;;10.73;5.25;;;;;;;;;;6248006;23;20319;-74
2021/07/20 01:51:42;;;;;;;11.95;5.30;;;;;;;;;;6220932;23;20004;-75
2021/07/20 01:54:09;;;;;;;9.93;5.07;;;;;;;;;;6247768;23;20007;-71
2021/07/20 01:56:36;;;;;;;11.75;5.63;;;;;;;;;;6220693;23;20016;-73
2021/07/20 01:59:02;;;;;;;12.80;4.97;;;;;;;;;;6248052;23;20000;-73
2021/07/20 02:01:29;;;;;;;10.77;4.95;;;;;;;;;;6247976;23;20008;-73
2021/07/20 02:04:23;;;;;;;8.50;5.13;;;;;;;;;;6220506;23;20437;-75
2021/07/20 02:09:36;;;;;;;15.43;5.70;;;;;;;;;;6247561;23;20499;-74
2021/07/20 02:12:15;;;;;;;10.75;5.43;;;;;;;;;;6247493;23;20012;-75
2021/07/20 02:14:42;;;;;;;12.77;5.38;;;;;;;;;;6220617;23;20015;-74
2021/07/20 02:17:10;;;;;;;12.95;5.82;;;;;;;;;;6248140;23;20024;-73
2021/07/20 02:19:38;;;;;;;9.98;4.95;;;;;;;;;;6220634;23;20011;-72
2021/07/20 02:22:04;;;;;;;11.40;5.35;;;;;;;;;;6247427;23;20110;-73
2021/07/20 02:24:32;;;;;;;18.27;6.38;;;;;;;;;;6220546;23;20488;-75
2021/07/20 02:27:00;;;;;;;13.73;4.95;;;;;;;;;;6220482;23;20034;-72
2021/07/20 02:29:26;;;;;;;9.30;5.28;;;;;;;;;;6247349;23;20011;-73
2021/07/20 02:31:55;;;;;;;11.32;5.10;;;;;;;;;;6247400;23;20321;-75
2021/07/20 02:34:22;;;;;;;10.93;5.35;;;;;;;;;;6220244;23;20421;-73
2021/07/20 02:36:50;;;;;;;12.05;5.38;;;;;;;;;;6220464;23;20012;-73
2021/07/20 02:39:18;;;;;;;13.45;5.15;;;;;;;;;;6247404;23;20448;-74
2021/07/20 02:41:44;;;;;;;11.57;4.88;;;;;;;;;;6220536;23;20012;-73
2021/07/20 02:44:11;;;;;;;13.30;5.43;;;;;;;;;;6220266;23;20004;-72
2021/07/20 02:46:37;;;;;;;10.18;4.78;;;;;;;;;;6247214;23;20000;-75
2021/07/20 02:49:04;;;;;;;12.57;5.75;;;;;;;;;;6247572;23;20004;-72
2021/07/20 02:51:31;;;;;;;13.95;6.45;;;;;;;;;;6220376;23;20000;-73
2021/07/20 02:53:59;;;;;;;10.93;5.50;;;;;;;;;;6220383;23;20015;-72
2021/07/20 02:56:25;;;;;;;13.13;4.93;;;;;;;;;;6220196;23;20043;-73
2021/07/20 02:58:53;;;;;;;12.00;5.45;;;;;;;;;;6220263;23;20000;-72
2021/07/20 03:01:19;;;;;;;12.10;5.50;;;;;;;;;;6247135;23;20023;-73
2021/07/20 03:03:46;;;;;;;11.60;5.35;;;;;;;;;;6220184;23;20008;-75
2021/07/20 03:06:13;;;;;;;12.57;5.57;;;;;;;;;;6247691;23;20015;-73
2021/07/20 03:08:39;;;;;;;10.68;5.60;;;;;;;;;;6220130;23;20100;-74
2021/07/20 03:11:09;;;;;;;16.02;5.50;;;;;;;;;;6247098;23;20004;-73
2021/07/20 03:13:38;;;;;;;15.50;5.57;;;;;;;;;;6220121;23;20011;-73
2021/07/20 03:16:08;;;;;;;14.15;5.25;;;;;;;;;;6247520;23;20023;-73
2021/07/20 03:18:36;;;;;;;12.25;6.40;;;;;;;;;;6220119;23;20004;-75
2021/07/20 03:21:03;;;;;;;12.63;5.72;;;;;;;;;;6219602;23;20008;-73
2021/07/20 03:23:29;;;;;;;14.02;5.95;;;;;;;;;;6246916;23;20000;-73
2021/07/20 03:25:57;;;;;;;11.57;5.75;;;;;;;;;;6220005;23;20008;-72
2021/07/20 03:28:23;;;;;;;14.02;6.47;;;;;;;;;;6246864;23;20429;-73
2021/07/20 03:30:50;;;;;;;13.25;5.78;;;;;;;;;;6220059;23;20015;-72
2021/07/20 03:33:17;;;;;;;12.85;6.10;;;;;;;;;;6246698;23;20004;-74
2021/07/20 03:35:44;;;;;;;11.45;5.20;;;;;;;;;;6232200;23;20020;-76
2021/07/20 03:38:10;;;;;;;14.30;5.47;;;;;;;;;;6246758;23;19997;-73
2021/07/20 03:40:37;;;;;;;18.23;6.28;;;;;;;;;;6245204;23;20094;-73
2021/07/20 03:43:03;;;;;;;12.88;5.53;;;;;;;;;;6245446;23;20367;-73
2021/07/20 03:45:31;;;;;;;15.35;5.85;;;;;;;;;;6246688;23;20035;-73
2021/07/20 03:47:57;;;;;;;15.07;5.60;;;;;;;;;;6246999;23;20004;-73
2021/07/20 03:50:23;;;;;;;14.18;5.63;;;;;;;;;;6245084;23;20004;-72
2021/07/20 03:52:50;;;;;;;13.70;5.55;;;;;;;;;;6246882;23;20005;-75
2021/07/20 03:55:19;;;;;;;13.65;5.88;;;;;;;;;;6246431;23;20430;-72
2021/07/20 03:57:46;;;;;;;13.85;5.63;;;;;;;;;;6244934;23;20334;-72
2021/07/20 04:00:14;;;;;;;14.30;6.53;;;;;;;;;;6244987;23;20004;-73
2021/07/20 04:02:47;;;;;;;11.10;5.20;;;;;;;;;;6246934;23;20054;-72
2021/07/20 04:05:14;;;;;;;12.88;6.25;;;;;;;;;;6245012;23;20107;-73
2021/07/20 04:07:43;;;;;;;16.17;5.55;;;;;;;;;;6244876;23;20004;-73
2021/07/20 04:10:10;;;;;;;15.68;5.63;;;;;;;;;;6244906;23;20006;-75
2021/07/20 04:12:37;;;;;;;15.85;5.95;;;;;;;;;;6246421;23;20004;-73
2021/07/20 04:15:04;;;;;;;10.52;5.03;;;;;;;;;;6244748;23;20426;-75
2021/07/20 04:17:30;;;;;;;13.88;5.75;;;;;;;;;;6246375;23;20004;-73
2021/07/20 04:19:56;;;;;;;10.70;5.28;;;;;;;;;;6244795;23;20011;-72
2021/07/20 04:22:23;;;;;;;15.05;5.72;;;;;;;;;;6244875;23;20440;-71
2021/07/20 04:24:50;;;;;;;13.38;5.45;;;;;;;;;;6245231;23;20299;-72
2021/07/20 04:27:18;;;;;;;12.07;5.45;;;;;;;;;;6244769;23;20004;-75
2021/07/20 04:29:44;;;;;;;13.32;5.88;;;;;;;;;;6246710;23;20011;-73
2021/07/20 04:32:11;;;;;;;10.93;5.60;;;;;;;;;;6246209;23;20032;-73
2021/07/20 04:34:37;;;;;;;9.20;5.07;;;;;;;;;;6244413;23;20001;-72
2021/07/20 04:37:07;;;;;;;11.80;5.32;;;;;;;;;;6219457;23;20058;-72
2021/07/20 04:39:35;;;;;;;10.15;5.30;;;;;;;;;;6219495;23;20008;-75
2021/07/20 04:42:02;;;;;;;11.30;5.72;;;;;;;;;;6219458;23;20010;-73
2021/07/20 04:44:29;;;;;;;12.05;5.18;;;;;;;;;;6246194;23;20031;-72
2021/07/20 04:46:55;;;;;;;10.88;5.43;;;;;;;;;;6246155;23;20430;-72
2021/07/20 04:49:21;;;;;;;10.77;5.53;;;;;;;;;;6218495;23;20000;-72
2021/07/20 04:51:49;;;;;;;9.63;5.10;;;;;;;;;;6245660;23;20000;-73
2021/07/20 04:54:16;;;;;;;9.32;5.13;;;;;;;;;;6219302;23;20008;-72
2021/07/20 04:56:42;;;;;;;11.65;4.97;;;;;;;;;;6219227;23;20016;-73
2021/07/20 04:59:12;;;;;;;8.00;4.63;;;;;;;;;;6246870;23;20011;-72
2021/07/20 05:01:39;;;;;;;10.00;5.40;;;;;;;;;;6218903;23;20008;-71
2021/07/20 05:04:06;;;;;;;10.13;4.80;;;;;;;;;;6246025;23;20012;-71
2021/07/20 05:06:33;;;;;;;8.43;4.90;;;;;;;;;;6246082;23;20011;-71
2021/07/20 05:09:00;;;;;;;9.05;4.95;;;;;;;;;;6245847;23;20011;-74
2021/07/20 05:11:26;;;;;;;10.13;4.85;;;;;;;;;;6245338;23;20410;-75
2021/07/20 05:13:53;;;;;;;10.82;4.95;;;;;;;;;;6245981;23;20028;-73
2021/07/20 05:16:19;;;;;;;8.27;4.60;;;;;;;;;;6219156;23;20012;-74
2021/07/20 05:18:46;;;;;;;10.07;4.65;;;;;;;;;;6219186;23;20004;-75
2021/07/20 05:21:12;;;;;;;8.23;4.45;;;;;;;;;;6219212;23;20311;-74
2021/07/20 05:23:42;;;;;;;8.70;5.18;;;;;;;;;;6245975;23;20480;-74
2021/07/20 05:26:08;;;;;;;12.60;5.40;;;;;;;;;;6245777;23;20004;-73
2021/07/20 05:28:36;;;;;;;10.40;4.85;;;;;;;;;;6244451;23;20099;-74
2021/07/20 05:31:02;;;;;;;8.30;4.55;;;;;;;;;;6246363;23;20314;-73
2021/07/20 05:33:29;;;;;;;8.25;4.60;;;;;;;;;;6245917;23;20062;-73
2021/07/20 05:35:57;;;;;;;9.57;5.00;;;;;;;;;;6233818;23;20044;-73
2021/07/20 05:38:23;;;;;;;10.82;4.57;;;;;;;;;;6244349;23;20000;-74
2021/07/20 05:40:51;;;;;;;7.88;4.75;;;;;;;;;;6244445;23;20441;-72
2021/07/20 05:43:18;;;;;;;8.85;4.68;;;;;;;;;;6245098;23;20004;-72
2021/07/20 05:45:45;;;;;;;8.30;4.50;;;;;;;;;;6247918;23;20040;-77
2021/07/20 05:48:15;;;;;;;10.30;4.18;;;;;;;;;;6246271;23;20003;-73
2021/07/20 05:50:49;;;;;;;7.95;4.78;;;;;;;;;;6246332;23;20354;-73
2021/07/20 05:53:16;;;;;;;8.13;4.47;;;;;;;;;;6246226;23;20039;-70
2021/07/20 05:55:45;;;;;;;12.98;4.57;;;;;;;;;;6246387;23;20346;-70
2021/07/20 05:58:11;;;;;;;9.77;4.60;;;;;;;;;;6247804;23;20326;-70
2021/07/20 06:00:38;;;;;;;11.35;4.45;;;;;;;;;;6245629;23;20308;-71
2021/07/20 06:03:05;;;;;;;9.90;4.88;;;;;;;;;;6246122;23;20437;-72
2021/07/20 06:05:31;;;;;;;8.18;4.50;;;;;;;;;;6247645;23;20004;-69
2021/07/20 06:07:57;;;;;;;10.43;4.65;;;;;;;;;;6247353;23;20011;-72
2021/07/20 06:10:24;;;;;;;8.57;4.28;;;;;;;;;;6247437;23;20449;-73
2021/07/20 06:12:52;;;;;;;9.05;4.43;;;;;;;;;;6245998;23;20054;-72
2021/07/20 06:15:19;;;;;;;9.60;4.43;;;;;;;;;;6247503;23;20013;-72
2021/07/20 06:17:46;;;;;;;9.07;4.13;;;;;;;;;;6247497;23;20298;-72
2021/07/20 06:20:13;;;;;;;9.00;4.60;;;;;;;;;;6247841;23;20005;-72
2021/07/20 06:22:43;;;;;;;7.80;3.92;;;;;;;;;;6245656;23;20096;-72
2021/07/20 06:25:11;;;;;;;10.15;4.38;;;;;;;;;;6245947;23;20058;-73
2021/07/20 06:27:37;;;;;;;8.85;4.47;;;;;;;;;;6248791;23;20298;-72
2021/07/20 06:30:05;;;;;;;7.00;3.85;;;;;;;;;;6247459;23;20088;-72
2021/07/20 06:32:32;;;;;;;8.55;4.07;;;;;;;;;;6245834;23;20004;-72
2021/07/20 06:34:58;;;;;;;7.07;4.30;;;;;;;;;;6247044;23;20058;-72
2021/07/20 06:37:28;;;;;;;7.25;4.03;;;;;;;;;;6247268;23;20008;-73
2021/07/20 06:39:55;;;;;;;10.55;4.25;;;;;;;;;;6219811;23;20004;-72
2021/07/20 06:42:21;;;;;;;10.32;4.00;;;;;;;;;;6220223;23;20343;-71
2021/07/20 06:44:47;;;;;;;8.70;3.95;;;;;;;;;;6247236;23;20000;-74
2021/07/20 06:47:16;;;;;;;8.43;3.72;;;;;;;;;;6220533;23;20024;-73
2021/07/20 06:49:46;;;;;;;8.52;4.00;;;;;;;;;;6247251;23;20050;-71
2021/07/20 06:52:12;;;;;;;12.02;4.28;;;;;;;;;;6220291;23;20004;-74
2021/07/20 06:54:38;;;;;;;7.00;4.30;;;;;;;;;;6246949;23;20034;-75
2021/07/20 06:57:05;;;;;;;11.60;4.35;;;;;;;;;;6247138;23;20007;-71
2021/07/20 06:59:34;;;;;;;8.05;4.40;;;;;;;;;;6246273;23;20317;-74
2021/07/20 07:02:01;;;;;;;11.45;4.68;;;;;;;;;;6219664;23;20088;-74
2021/07/20 07:04:48;;;;;;;8.60;4.82;;;;;;;;;;6220194;23;20073;-70
2021/07/20 07:07:14;;;;;;;14.50;4.25;;;;;;;;;;6247046;23;20010;-71
2021/07/20 07:09:41;;;;;;;6.13;3.75;;;;;;;;;;6219899;23;20004;-71
2021/07/20 07:12:09;;;;;;;7.63;4.25;;;;;;;;;;6247038;23;20026;-71
2021/07/20 07:14:35;;;;;;;7.65;3.90;;;;;;;;;;6246846;23;20004;-72
2021/07/20 07:17:03;;;;;;;10.73;4.35;;;;;;;;;;6220078;23;20067;-73
2021/07/20 07:19:29;;;;;;;7.15;4.03;;;;;;;;;;6220091;23;20000;-73
2021/07/20 07:21:56;;;;;;;9.82;4.38;;;;;;;;;;6247146;23;20071;-73
2021/07/20 07:24:23;;;;;;;7.03;4.25;;;;;;;;;;6246567;23;19996;-73
2021/07/20 07:26:50;;;;;;;7.43;4.10;;;;;;;;;;6246733;23;20004;-72
2021/07/20 07:29:19;;;;;;;8.25;4.05;;;;;;;;;;6219871;23;20095;-73
2021/07/20 07:31:49;;;;;;;8.18;3.88;;;;;;;;;;6219955;23;20015;-73
2021/07/20 07:34:15;;;;;;;7.88;4.15;;;;;;;;;;6219817;23;20012;-74
2021/07/20 07:36:43;;;;;;;7.97;4.63;;;;;;;;;;6245120;23;20024;-74
2021/07/20 07:39:10;;;;;;;8.07;3.88;;;;;;;;;;6245175;23;20014;-74
2021/07/20 07:41:39;;;;;;;9.63;3.88;;;;;;;;;;6245186;23;20031;-72
2021/07/20 07:44:11;;;;;;;13.23;4.30;;;;;;;;;;6246954;23;20012;-73
2021/07/20 07:46:38;;;;;;;7.65;4.10;;;;;;;;;;6245134;23;20007;-72
2021/07/20 07:49:05;;;;;;;6.07;3.80;;;;;;;;;;6245173;23;20008;-72
2021/07/20 07:51:32;;;;;;;7.50;3.95;;;;;;;;;;6246598;23;20007;-73
2021/07/20 07:53:58;;;;;;;11.00;4.22;;;;;;;;;;6246382;23;20011;-75
2021/07/20 07:56:31;;;;;;;12.25;4.90;;;;;;;;;;6244893;23;20079;-75
2021/07/20 07:58:59;;;;;;;6.60;3.85;;;;;;;;;;6246381;23;20004;-74
2021/07/20 08:01:26;;;;;;;8.27;4.30;;;;;;;;;;6246908;23;20461;-73
2021/07/20 08:03:54;;;;;;;6.18;3.75;;;;;;;;;;6244389;23;20087;-74
2021/07/20 08:06:21;;;;;;;8.90;3.65;;;;;;;;;;6246174;23;20004;-74
2021/07/20 08:08:49;;;;;;;11.77;4.10;;;;;;;;;;6244865;23;20383;-74
2021/07/20 08:11:15;;;;;;;9.88;4.50;;;;;;;;;;6244980;23;20085;-74
2021/07/20 08:13:43;;;;;;;6.72;3.63;;;;;;;;;;6246773;23;20012;-74
2021/07/20 08:16:11;;;;;;;9.63;4.57;;;;;;;;;;6246315;23;20012;-74
2021/07/20 08:18:37;;;;;;;8.02;4.13;;;;;;;;;;6244870;23;20007;-74
2021/07/20 08:21:08;;;;;;;8.60;4.53;;;;;;;;;;6246693;23;20008;-74
2021/07/20 08:23:35;;;;;;;7.70;3.85;;;;;;;;;;6244908;23;20079;-74
2021/07/20 08:26:06;;;;;;;7.20;3.97;;;;;;;;;;6246331;23;20012;-75
2021/07/20 08:28:55;;;;;;;12.93;4.72;;;;;;;;;;6244810;23;20422;-74
2021/07/20 08:31:22;;;;;;;8.98;4.38;;;;;;;;;;6225709;23;20000;-75
2021/07/20 08:33:51;;;;;;;9.38;4.32;;;;;;;;;;6246628;23;20131;-75
2021/07/20 08:36:18;;;;;;;23.70;4.85;;;;;;;;;;6244540;23;20098;-74
2021/07/20 08:38:48;;;;;;;8.45;4.40;;;;;;;;;;6246266;23;20027;-74
2021/07/20 08:41:18;;;;;;;7.95;4.35;;;;;;;;;;6244634;23;20000;-74
2021/07/20 08:43:53;;;;;;;12.10;4.20;;;;;;;;;;6244677;23;20000;-74
2021/07/20 08:46:34;;;;;;;21.83;4.07;;;;;;;;;;6244608;23;20015;-74
2021/07/20 08:49:12;;;;;;;8.02;4.00;;;;;;;;;;6246885;23;19996;-74
2021/07/20 08:51:41;;;;;;;12.57;4.80;;;;;;;;;;6246131;23;20050;-74
2021/07/20 08:54:13;;;;;;;17.02;4.63;;;;;;;;;;6246271;23;20000;-74
2021/07/20 08:56:43;;;;;;;8.25;3.92;;;;;;;;;;6244457;23;20035;-74
2021/07/20 08:59:14;;;;;;;9.88;3.78;;;;;;;;;;6244550;23;20011;-74
2021/07/20 09:01:43;;;;;;;13.70;4.55;;;;;;;;;;6244533;23;20008;-74
2021/07/20 09:04:18;;;;;;;8.77;3.78;;;;;;;;;;6244624;23;20032;-74
2021/07/20 09:06:49;;;;;;;15.25;4.80;;;;;;;;;;6244622;23;20004;-74
2021/07/20 09:09:19;;;;;;;8.35;4.25;;;;;;;;;;6244603;23;20028;-74
2021/07/20 09:11:51;;;;;;;14.68;4.35;;;;;;;;;;6246035;23;20008;-74
2021/07/20 09:14:34;;;;;;;9.07;4.68;;;;;;;;;;6244638;23;20016;-74
2021/07/20 09:17:13;;;;;;;7.47;4.18;;;;;;;;;;6244500;23;20066;-74
2021/07/20 09:19:52;;;;;;;7.30;4.28;;;;;;;;;;6246505;23;20000;-74
2021/07/20 09:22:21;;;;;;;7.85;4.35;;;;;;;;;;6246565;23;20008;-73
2021/07/20 09:24:50;;;;;;;11.50;4.35;;;;;;;;;;6246522;23;20004;-74
2021/07/20 09:27:21;;;;;;;7.75;4.22;;;;;;;;;;6248045;23;20011;-74
2021/07/20 09:29:48;;;;;;;9.60;4.45;;;;;;;;;;6247960;23;20422;-74
2021/07/20 09:32:33;;;;;;;9.70;4.13;;;;;;;;;;6246382;23;20500;-74
2021/07/20 09:35:05;;;;;;;7.65;4.00;;;;;;;;;;6235180;23;20335;-74
2021/07/20 09:37:50;;;;;;;7.00;3.90;;;;;;;;;;6190942;23;20012;-75
2021/07/20 09:40:25;;;;;;;6.90;3.72;;;;;;;;;;6190770;23;20012;-74
2021/07/20 09:43:04;;;;;;;11.57;5.13;;;;;;;;;;6190951;23;20342;-74
2021/07/20 09:45:43;;;;;;;10.77;4.28;;;;;;;;;;6190900;23;20005;-74
2021/07/20 09:48:22;;;;;;;8.05;4.22;;;;;;;;;;6217857;23;20308;-74
2021/07/20 09:50:52;;;;;;;10.05;4.10;;;;;;;;;;6190866;23;20501;-74
2021/07/20 09:53:24;;;;;;;8.32;3.90;;;;;;;;;;6217442;23;20011;-74
2021/07/20 09:56:08;;;;;;;8.15;4.80;;;;;;;;;;6190790;23;20012;-74
2021/07/20 09:58:53;;;;;;;11.18;4.25;;;;;;;;;;6190712;23;20000;-74
2021/07/20 10:01:20;;;;;;;8.38;3.97;;;;;;;;;;6217990;23;20457;-74
2021/07/20 10:04:13;;;;;;;12.15;4.88;;;;;;;;;;6217985;23;20000;-74
2021/07/20 10:06:39;;;;;;;;;;;;;;;;;;6191308;23;20004;-74
2021/07/20 10:09:25;;;;;;;12.65;4.22;;;;;;;;;;6217607;23;19907;-74
2021/07/20 10:11:57;;;;;;;7.57;4.28;;;;;;;;;;6190543;23;20367;-74
2021/07/20 10:14:44;;;;;;;7.25;4.15;;;;;;;;;;6190661;23;20339;-74
2021/07/20 10:17:30;;;;;;;9.45;3.78;;;;;;;;;;6217904;23;20009;-74
2021/07/20 10:20:00;;;;;;;9.43;4.25;;;;;;;;;;6217209;23;20326;-74
2021/07/20 10:22:50;;;;;;;7.72;3.40;;;;;;;;;;6190566;23;20336;-74
2021/07/20 10:25:21;;;;;;;12.25;3.63;;;;;;;;;;6198079;23;20004;-74
2021/07/20 10:27:56;;;;;;;8.27;4.03;;;;;;;;;;6190496;23;20004;-74
2021/07/20 10:30:23;;;;;;;8.38;3.90;;;;;;;;;;6190209;23;20058;-74
2021/07/20 10:33:03;;;;;;;6.35;3.55;;;;;;;;;;6217834;23;19996;-75
2021/07/20 10:35:44;;;;;;;9.13;3.85;;;;;;;;;;6213492;23;20024;-74
2021/07/20 10:38:17;;;;;;;8.65;3.95;;;;;;;;;;6245831;23;20004;-75
2021/07/20 10:40:44;;;;;;;6.30;3.55;;;;;;;;;;6245909;23;20452;-74
2021/07/20 10:43:19;;;;;;;7.07;4.00;;;;;;;;;;6247679;23;20000;-74
2021/07/20 10:45:47;;;;;;;11.13;4.22;;;;;;;;;;6245832;23;20019;-74
2021/07/20 10:48:17;;;;;;;7.30;3.58;;;;;;;;;;6245845;23;20000;-74
2021/07/20 10:51:05;;;;;;;7.72;4.20;;;;;;;;;;6245710;23;20015;-74
2021/07/20 10:53:43;;;;;;;8.02;3.72;;;;;;;;;;6245724;23;20000;-74
2021/07/20 10:56:18;;;;;;;10.25;4.55;;;;;;;;;;6245394;23;20442;-75
2021/07/20 10:58:47;;;;;;;10.07;4.07;;;;;;;;;;6245756;23;20047;-75
2021/07/20 11:01:30;;;;;;;6.82;4.18;;;;;;;;;;6247480;23;20358;-75
2021/07/20 11:04:12;;;;;;;13.52;4.07;;;;;;;;;;6245587;23;20083;-74
2021/07/20 11:06:40;;;;;;;10.02;4.03;;;;;;;;;;6245869;23;20404;-74
2021/07/20 11:09:12;;;;;;;7.28;4.18;;;;;;;;;;6245569;23;20008;-74
2021/07/20 11:11:43;;;;;;;7.70;4.05;;;;;;;;;;6245494;23;20378;-75
2021/07/20 11:14:10;;;;;;;7.70;3.85;;;;;;;;;;6245521;23;20007;-75
2021/07/20 11:16:38;;;;;;;8.75;4.00;;;;;;;;;;6246954;23;20050;-76
2021/07/20 11:19:07;;;;;;;9.32;4.35;;;;;;;;;;6245422;23;20004;-71
2021/07/20 11:21:34;;;;;;;8.80;4.30;;;;;;;;;;6245991;23;20334;-84
2021/07/20 11:24:01;;;;;;;8.85;4.45;;;;;;;;;;6247655;23;20004;-72
2021/07/20 11:26:29;;;;;;;7.07;3.75;;;;;;;;;;6245933;23;20004;-73
2021/07/20 11:28:56;;;;;;;8.43;3.85;;;;;;;;;;6246778;23;20039;-81
2021/07/20 11:31:28;;;;;;;8.57;4.10;;;;;;;;;;6248095;23;20066;-82
2021/07/20 11:34:03;;;;;;;9.85;4.07;;;;;;;;;;6245655;23;20004;-82
2021/07/20 11:36:33;;;;;;;9.25;4.25;;;;;;;;;;6245350;23;20015;-72
2021/07/20 11:39:00;;;;;;;10.32;4.57;;;;;;;;;;6245775;23;20004;-71
2021/07/20 11:41:26;;;;;;;8.60;4.75;;;;;;;;;;6245155;23;20008;-82
2021/07/20 11:44:12;;;;;;;14.60;5.38;;;;;;;;;;6245507;23;20377;-83
2021/07/20 11:46:41;;;;;;;8.70;5.57;;;;;;;;;;6246568;22;20061;-84
2021/07/20 11:49:16;;;;;;;10.88;6.10;;;;;;;;;;6245731;23;20053;-76
2021/07/20 11:51:48;;;;;;;14.02;7.20;;;;;;;;;;6245999;23;20014;-86
2021/07/20 11:54:26;;;;;;;8.60;4.95;;;;;;;;;;6246911;23;20004;-86
2021/07/20 11:57:16;;;;;;;10.90;5.85;;;;;;;;;;6246421;23;20023;-83
2021/07/20 11:59:45;;;;;;;11.65;6.22;;;;;;;;;;6177195;23;20066;-84
2021/07/20 12:02:17;;;;;;;10.15;6.22;;;;;;;;;;6245823;23;20489;-80
2021/07/20 12:04:51;;;;;;;9.80;6.35;;;;;;;;;;6245233;23;20004;-86
2021/07/20 12:07:29;;;;;;;19.30;7.70;;;;;;;;;;6245829;23;20460;-86
2021/07/20 12:10:16;;;;;;;17.58;6.55;;;;;;;;;;6245593;23;20008;-81
2021/07/20 12:12:45;;;;;;;9.52;5.53;;;;;;;;;;6245453;23;20054;-83
2021/07/20 12:15:15;;;;;;;13.55;6.97;;;;;;;;;;6245332;23;20058;-81
2021/07/20 12:17:43;;;;;;;10.70;6.00;;;;;;;;;;6246993;23;20337;-78
2021/07/20 12:20:10;;;;;;;11.00;6.40;;;;;;;;;;6246644;23;20066;-84
2021/07/20 12:22:36;;;;;;;14.18;6.82;;;;;;;;;;6247006;23;20008;-80
2021/07/20 12:25:06;;;;;;;10.35;5.57;;;;;;;;;;6247534;23;20004;-72
2021/07/20 12:27:33;;;;;;;11.45;6.05;;;;;;;;;;6245036;23;20066;-83
2021/07/20 12:29:59;;;;;;;17.92;7.88;;;;;;;;;;6244761;23;20489;-81
2021/07/20 12:32:30;;;;;;;12.23;7.03;;;;;;;;;;6246854;23;20004;-81
2021/07/20 12:34:59;;;;;;;15.60;8.43;;;;;;;;;;6249760;22;20012;-80
2021/07/20 12:37:26;;;;;;;13.52;6.80;;;;;;;;;;6246577;23;20019;-71
2021/07/20 12:39:56;;;;;;;13.60;6.22;;;;;;;;;;6246249;23;20318;-71
2021/07/20 12:42:23;;;;;;;14.85;6.50;;;;;;;;;;6219416;23;20083;-77
2021/07/20 12:45:02;;;;;;;14.35;8.45;;;;;;;;;;6218619;23;20009;-76
2021/07/20 12:47:28;;;;;;;24.33;11.23;;;;;;;;;;6219110;23;20012;-69
2021/07/20 12:50:03;;;;;;;18.80;10.38;;;;;;;;;;6246480;23;20079;-76
2021/07/20 12:52:29;;;;;;;31.17;18.02;;;;;;;;;;6220253;23;20303;-69
2021/07/20 12:54:55;;;;;;;40.05;19.33;;;;;;;;;;6248568;23;20003;-78
2021/07/20 12:57:23;;;;;;;21.25;12.63;;;;;;;;;;6221401;23;20012;-77
2021/07/20 12:59:49;;;;;;;14.60;7.20;;;;;;;;;;6248204;23;20005;-76
2021/07/20 13:02:15;;;;;;;9.75;5.40;;;;;;;;;;6221258;23;20008;-70
2021/07/20 13:04:50;;;;;;;16.88;8.45;;;;;;;;;;6221304;23;20036;-78
2021/07/20 13:07:17;;;;;;;14.50;8.15;;;;;;;;;;6221151;23;20000;-76
2021/07/20 13:09:44;;;;;;;15.30;7.70;;;;;;;;;;6248418;23;20004;-69
2021/07/20 13:12:11;;;;;;;13.60;7.25;;;;;;;;;;6248047;23;20437;-70
2021/07/20 13:14:39;;;;;;;19.17;8.20;;;;;;;;;;6221323;23;20015;-71
2021/07/20 13:17:05;;;;;;;14.70;7.82;;;;;;;;;;6221215;23;20078;-78
2021/07/20 13:19:32;;;;;;;18.23;8.45;;;;;;;;;;6221217;23;20007;-77
2021/07/20 13:21:59;;;;;;;13.10;7.72;;;;;;;;;;6248435;23;20023;-72
2021/07/20 13:24:29;;;;;;;18.67;8.25;;;;;;;;;;6221108;23;20414;-74
2021/07/20 13:27:01;;;;;;;13.63;7.15;;;;;;;;;;6220764;23;20322;-75
2021/07/20 13:29:27;;;;;;;15.27;7.47;;;;;;;;;;6220318;23;20012;-74
2021/07/20 13:31:53;;;;;;;11.75;6.88;;;;;;;;;;6220487;23;20338;-70
2021/07/20 13:34:20;;;;;;;14.90;7.72;;;;;;;;;;6247214;23;20004;-72
2021/07/20 13:36:47;;;;;;;13.25;7.20;;;;;;;;;;6247353;23;20016;-76
2021/07/20 13:39:14;;;;;;;15.90;7.40;;;;;;;;;;6220595;23;20005;-75
2021/07/20 13:41:41;;;;;;;11.35;6.38;;;;;;;;;;6247608;23;20413;-73
2021/07/20 13:44:10;;;;;;;13.80;6.80;;;;;;;;;;6247512;23;20410;-70
2021/07/20 13:46:39;;;;;;;13.88;7.85;;;;;;;;;;6247582;23;20095;-75
2021/07/20 13:49:05;;;;;;;12.88;7.00;;;;;;;;;;6220595;23;20008;-73
2021/07/20 13:51:34;;;;;;;11.07;6.28;;;;;;;;;;6247438;23;20011;-70
2021/07/20 13:54:01;;;;;;;12.48;5.55;;;;;;;;;;6220675;23;20066;-71
2021/07/20 13:56:35;;;;;;;11.88;5.07;;;;;;;;;;6220558;23;20016;-71
2021/07/20 13:59:05;;;;;;;11.43;5.15;;;;;;;;;;6220633;23;20480;-75
2021/07/20 14:01:34;;;;;;;9.60;4.38;;;;;;;;;;6247431;23;20000;-73
2021/07/20 14:04:01;;;;;;;10.20;4.53;;;;;;;;;;6246655;23;20364;-73
2021/07/20 14:06:27;;;;;;;9.93;4.60;;;;;;;;;;6246914;23;20000;-71
2021/07/20 14:08:53;;;;;;;14.63;4.85;;;;;;;;;;6247263;23;20004;-69
2021/07/20 14:11:20;;;;;;;8.18;4.63;;;;;;;;;;6247235;23;20010;-71
2021/07/20 14:13:46;;;;;;;10.85;4.43;;;;;;;;;;6247341;23;20329;-76
2021/07/20 14:16:16;;;;;;;9.05;4.45;;;;;;;;;;6220716;23;20012;-76
2021/07/20 14:18:44;;;;;;;7.93;4.40;;;;;;;;;;6220459;23;20012;-72
2021/07/20 14:21:21;;;;;;;7.82;4.53;;;;;;;;;;6220780;23;20082;-76
2021/07/20 14:23:47;;;;;;;11.10;5.18;;;;;;;;;;6220809;23;20011;-77
2021/07/20 14:26:14;;;;;;;9.43;4.40;;;;;;;;;;6248254;23;20005;-71
2021/07/20 14:28:41;;;;;;;8.38;4.20;;;;;;;;;;6221800;23;20009;-77
2021/07/20 14:31:07;;;;;;;8.88;4.10;;;;;;;;;;6220754;23;20020;-75
2021/07/20 14:33:34;;;;;;;6.47;3.53;;;;;;;;;;6247447;23;20333;-76
2021/07/20 14:36:02;;;;;;;23.15;4.45;;;;;;;;;;6232320;23;20058;-77
2021/07/20 14:38:35;;;;;;;10.07;3.88;;;;;;;;;;6248619;23;20000;-75
2021/07/20 14:41:09;;;;;;;7.25;4.07;;;;;;;;;;6245922;23;20038;-76
2021/07/20 14:43:39;;;;;;;7.97;4.10;;;;;;;;;;6245895;23;20167;-77
2021/07/20 14:46:09;;;;;;;9.20;4.53;;;;;;;;;;6245794;23;20438;-74
2021/07/20 14:48:38;;;;;;;9.20;4.15;;;;;;;;;;6247337;23;20418;-77
2021/07/20 14:51:05;;;;;;;7.57;4.43;;;;;;;;;;6247424;23;20003;-78